sensor_id;sensor_type;location;lat;lon;timestamp;P1;durP1;ratioP1;P2;durP2;ratioP2
8435;SDS011;4255;48.730;9.156;2024-02-14T00:00:12;8.95;;;8.20;;
8435;SDS011;4255;48.730;9.156;2024-02-14T00:02:43;7.50;;;6.78;;
8435;SDS011;4255;48.730;9.156;2024-02-14T00:05:09;9.60;;;7.95;;
8435;SDS011;4255;48.730;9.156;2024-02-14T00:07:36;11.27;;;8.18;;
8435;SDS011;4255;48.730;9.156;2024-02-14T00:10:05;8.88;;;8.00;;
8435;SDS011;4255;48.730;9.156;2024-02-14T00:12:31;8.63;;;7.80;;
8435;SDS011;4255;48.730;9.156;2024-02-14T00:15:01;8.85;;;8.05;;
8435;SDS011;4255;48.730;9.156;2024-02-14T00:17:28;8.55;;;6.57;;
8435;SDS011;4255;48.730;9.156;2024-02-14T00:19:54;8.88;;;8.07;;
8435;SDS011;4255;48.730;9.156;2024-02-14T00:22:19;9.50;;;7.97;;
8435;SDS011;4255;48.730;9.156;2024-02-14T00:24:45;9.03;;;8.00;;
8435;SDS011;4255;48.730;9.156;2024-02-14T00:27:10;12.30;;;9.20;;
8435;SDS011;4255;48.730;9.156;2024-02-14T00:29:37;8.38;;;7.68;;
8435;SDS011;4255;48.730;9.156;2024-02-14T00:32:02;10.10;;;7.23;;
8435;SDS011;4255;48.730;9.156;2024-02-14T00:34:28;8.03;;;7.33;;
8435;SDS011;4255;48.730;9.156;2024-02-14T00:36:54;14.60;;;8.43;;
8435;SDS011;4255;48.730;9.156;2024-02-14T00:39:19;10.87;;;8.17;;
8435;SDS011;4255;48.730;9.156;2024-02-14T00:41:46;9.47;;;7.20;;
8435;SDS011;4255;48.730;9.156;2024-02-14T00:44:12;11.90;;;7.88;;
8435;SDS011;4255;48.730;9.156;2024-02-14T00:46:41;7.10;;;6.40;;
8435;SDS011;4255;48.730;9.156;2024-02-14T00:49:08;8.13;;;7.32;;
8435;SDS011;4255;48.730;9.156;2024-02-14T00:51:35;7.63;;;6.95;;
8435;SDS011;4255;48.730;9.156;2024-02-14T00:54:02;10.25;;;6.43;;
8435;SDS011;4255;48.730;9.156;2024-02-14T00:56:28;17.63;;;6.50;;
8435;SDS011;4255;48.730;9.156;2024-02-14T00:58:53;8.13;;;6.93;;
8435;SDS011;4255;48.730;9.156;2024-02-14T01:01:19;10.05;;;6.85;;
8435;SDS011;4255;48.730;9.156;2024-02-14T01:03:46;7.80;;;6.25;;
8435;SDS011;4255;48.730;9.156;2024-02-14T01:06:11;8.63;;;6.63;;
8435;SDS011;4255;48.730;9.156;2024-02-14T01:08:39;7.50;;;6.53;;
8435;SDS011;4255;48.730;9.156;2024-02-14T01:11:06;13.25;;;6.35;;
8435;SDS011;4255;48.730;9.156;2024-02-14T01:13:31;8.60;;;6.30;;
8435;SDS011;4255;48.730;9.156;2024-02-14T01:15:57;6.93;;;6.33;;
8435;SDS011;4255;48.730;9.156;2024-02-14T01:18:22;7.33;;;5.70;;
8435;SDS011;4255;48.730;9.156;2024-02-14T01:20:49;8.57;;;6.97;;
8435;SDS011;4255;48.730;9.156;2024-02-14T01:23:14;7.40;;;6.57;;
8435;SDS011;4255;48.730;9.156;2024-02-14T01:25:40;7.03;;;6.33;;
8435;SDS011;4255;48.730;9.156;2024-02-14T01:28:07;8.07;;;5.90;;
8435;SDS011;4255;48.730;9.156;2024-02-14T01:30:33;8.70;;;6.68;;
8435;SDS011;4255;48.730;9.156;2024-02-14T01:33:09;13.88;;;6.95;;
8435;SDS011;4255;48.730;9.156;2024-02-14T01:35:34;9.20;;;5.67;;
8435;SDS011;4255;48.730;9.156;2024-02-14T01:38:00;14.00;;;6.67;;
8435;SDS011;4255;48.730;9.156;2024-02-14T01:40:28;7.05;;;6.32;;
8435;SDS011;4255;48.730;9.156;2024-02-14T01:42:54;10.23;;;6.53;;
8435;SDS011;4255;48.730;9.156;2024-02-14T01:45:20;8.45;;;6.60;;
8435;SDS011;4255;48.730;9.156;2024-02-14T01:47:46;7.13;;;6.53;;
8435;SDS011;4255;48.730;9.156;2024-02-14T01:50:13;10.93;;;5.18;;
8435;SDS011;4255;48.730;9.156;2024-02-14T01:52:39;8.30;;;5.75;;
8435;SDS011;4255;48.730;9.156;2024-02-14T01:55:05;9.57;;;6.65;;
8435;SDS011;4255;48.730;9.156;2024-02-14T01:57:32;11.68;;;6.10;;
8435;SDS011;4255;48.730;9.156;2024-02-14T01:59:59;6.45;;;5.85;;
8435;SDS011;4255;48.730;9.156;2024-02-14T02:02:29;8.10;;;7.15;;
8435;SDS011;4255;48.730;9.156;2024-02-14T02:04:55;6.60;;;5.90;;
8435;SDS011;4255;48.730;9.156;2024-02-14T02:07:21;7.47;;;5.50;;
8435;SDS011;4255;48.730;9.156;2024-02-14T02:09:46;7.40;;;6.20;;
8435;SDS011;4255;48.730;9.156;2024-02-14T02:12:12;7.70;;;5.73;;
8435;SDS011;4255;48.730;9.156;2024-02-14T02:14:38;9.17;;;6.60;;
8435;SDS011;4255;48.730;9.156;2024-02-14T02:17:05;7.22;;;6.50;;
8435;SDS011;4255;48.730;9.156;2024-02-14T02:19:33;8.00;;;5.93;;
8435;SDS011;4255;48.730;9.156;2024-02-14T02:22:00;7.27;;;6.47;;
8435;SDS011;4255;48.730;9.156;2024-02-14T02:24:26;7.57;;;6.78;;
8435;SDS011;4255;48.730;9.156;2024-02-14T02:26:51;6.60;;;5.80;;
8435;SDS011;4255;48.730;9.156;2024-02-14T02:29:17;5.90;;;5.40;;
8435;SDS011;4255;48.730;9.156;2024-02-14T02:31:44;9.98;;;6.15;;
8435;SDS011;4255;48.730;9.156;2024-02-14T02:34:10;7.28;;;5.93;;
8435;SDS011;4255;48.730;9.156;2024-02-14T02:36:36;9.80;;;6.50;;
8435;SDS011;4255;48.730;9.156;2024-02-14T02:39:03;6.35;;;5.65;;
8435;SDS011;4255;48.730;9.156;2024-02-14T02:41:29;8.15;;;5.63;;
8435;SDS011;4255;48.730;9.156;2024-02-14T02:43:56;6.70;;;5.28;;
8435;SDS011;4255;48.730;9.156;2024-02-14T02:46:22;6.75;;;6.03;;
8435;SDS011;4255;48.730;9.156;2024-02-14T02:48:48;8.97;;;5.47;;
8435;SDS011;4255;48.730;9.156;2024-02-14T02:51:17;9.10;;;7.30;;
8435;SDS011;4255;48.730;9.156;2024-02-14T02:53:43;11.82;;;6.15;;
8435;SDS011;4255;48.730;9.156;2024-02-14T02:56:08;9.07;;;5.77;;
8435;SDS011;4255;48.730;9.156;2024-02-14T02:58:34;6.73;;;6.03;;
8435;SDS011;4255;48.730;9.156;2024-02-14T03:01:00;7.57;;;6.23;;
8435;SDS011;4255;48.730;9.156;2024-02-14T03:03:25;14.00;;;6.80;;
8435;SDS011;4255;48.730;9.156;2024-02-14T03:05:53;8.10;;;5.13;;
8435;SDS011;4255;48.730;9.156;2024-02-14T03:08:20;6.25;;;5.75;;
8435;SDS011;4255;48.730;9.156;2024-02-14T03:10:46;7.80;;;6.00;;
8435;SDS011;4255;48.730;9.156;2024-02-14T03:13:14;7.32;;;5.30;;
8435;SDS011;4255;48.730;9.156;2024-02-14T03:15:42;9.55;;;6.43;;
8435;SDS011;4255;48.730;9.156;2024-02-14T03:18:08;5.82;;;5.25;;
8435;SDS011;4255;48.730;9.156;2024-02-14T03:20:35;6.13;;;5.57;;
8435;SDS011;4255;48.730;9.156;2024-02-14T03:23:01;10.05;;;5.30;;
8435;SDS011;4255;48.730;9.156;2024-02-14T03:25:28;5.70;;;5.20;;
8435;SDS011;4255;48.730;9.156;2024-02-14T03:27:54;8.43;;;5.10;;
8435;SDS011;4255;48.730;9.156;2024-02-14T03:30:22;5.05;;;4.65;;
8435;SDS011;4255;48.730;9.156;2024-02-14T03:32:47;9.60;;;5.20;;
8435;SDS011;4255;48.730;9.156;2024-02-14T03:35:17;9.40;;;5.20;;
8435;SDS011;4255;48.730;9.156;2024-02-14T03:37:45;10.02;;;6.28;;
8435;SDS011;4255;48.730;9.156;2024-02-14T03:40:14;6.65;;;6.05;;
8435;SDS011;4255;48.730;9.156;2024-02-14T03:42:40;6.43;;;5.70;;
8435;SDS011;4255;48.730;9.156;2024-02-14T03:45:06;7.30;;;6.67;;
8435;SDS011;4255;48.730;9.156;2024-02-14T03:47:33;6.72;;;5.40;;
8435;SDS011;4255;48.730;9.156;2024-02-14T03:49:59;10.70;;;5.63;;
8435;SDS011;4255;48.730;9.156;2024-02-14T03:52:25;6.65;;;5.72;;
8435;SDS011;4255;48.730;9.156;2024-02-14T03:54:51;6.25;;;5.30;;
8435;SDS011;4255;48.730;9.156;2024-02-14T03:57:17;7.33;;;5.67;;
8435;SDS011;4255;48.730;9.156;2024-02-14T03:59:43;7.63;;;5.50;;
8435;SDS011;4255;48.730;9.156;2024-02-14T04:02:11;6.20;;;5.68;;
8435;SDS011;4255;48.730;9.156;2024-02-14T04:04:38;6.35;;;4.88;;
8435;SDS011;4255;48.730;9.156;2024-02-14T04:07:07;11.00;;;5.70;;
8435;SDS011;4255;48.730;9.156;2024-02-14T04:09:36;5.88;;;5.38;;
8435;SDS011;4255;48.730;9.156;2024-02-14T04:12:01;4.97;;;4.47;;
8435;SDS011;4255;48.730;9.156;2024-02-14T04:14:27;7.50;;;5.10;;
8435;SDS011;4255;48.730;9.156;2024-02-14T04:16:53;6.30;;;4.63;;
8435;SDS011;4255;48.730;9.156;2024-02-14T04:19:19;5.25;;;4.80;;
8435;SDS011;4255;48.730;9.156;2024-02-14T04:21:45;4.87;;;4.47;;
8435;SDS011;4255;48.730;9.156;2024-02-14T04:24:11;5.53;;;5.03;;
8435;SDS011;4255;48.730;9.156;2024-02-14T04:26:37;9.60;;;6.70;;
8435;SDS011;4255;48.730;9.156;2024-02-14T04:29:02;4.83;;;4.33;;
8435;SDS011;4255;48.730;9.156;2024-02-14T04:31:28;4.63;;;4.23;;
8435;SDS011;4255;48.730;9.156;2024-02-14T04:33:57;5.65;;;5.15;;
8435;SDS011;4255;48.730;9.156;2024-02-14T04:36:23;4.60;;;4.20;;
8435;SDS011;4255;48.730;9.156;2024-02-14T04:38:49;5.00;;;4.30;;
8435;SDS011;4255;48.730;9.156;2024-02-14T04:41:15;4.70;;;4.27;;
8435;SDS011;4255;48.730;9.156;2024-02-14T04:43:41;5.63;;;5.13;;
8435;SDS011;4255;48.730;9.156;2024-02-14T04:46:07;4.60;;;4.20;;
8435;SDS011;4255;48.730;9.156;2024-02-14T04:48:34;9.77;;;5.15;;
8435;SDS011;4255;48.730;9.156;2024-02-14T04:51:00;14.00;;;5.80;;
8435;SDS011;4255;48.730;9.156;2024-02-14T04:53:26;6.68;;;6.03;;
8435;SDS011;4255;48.730;9.156;2024-02-14T04:55:52;12.05;;;6.20;;
8435;SDS011;4255;48.730;9.156;2024-02-14T04:58:18;5.45;;;4.90;;
8435;SDS011;4255;48.730;9.156;2024-02-14T05:00:44;5.10;;;4.60;;
8435;SDS011;4255;48.730;9.156;2024-02-14T05:03:10;4.77;;;4.37;;
8435;SDS011;4255;48.730;9.156;2024-02-14T05:05:36;7.00;;;4.23;;
8435;SDS011;4255;48.730;9.156;2024-02-14T05:08:01;8.03;;;4.67;;
8435;SDS011;4255;48.730;9.156;2024-02-14T05:10:27;5.07;;;4.47;;
8435;SDS011;4255;48.730;9.156;2024-02-14T05:12:53;5.23;;;4.73;;
8435;SDS011;4255;48.730;9.156;2024-02-14T05:15:19;7.95;;;5.35;;
8435;SDS011;4255;48.730;9.156;2024-02-14T05:17:45;6.93;;;5.33;;
8435;SDS011;4255;48.730;9.156;2024-02-14T05:20:10;5.87;;;4.33;;
8435;SDS011;4255;48.730;9.156;2024-02-14T05:22:37;4.47;;;4.13;;
8435;SDS011;4255;48.730;9.156;2024-02-14T05:25:03;7.18;;;4.78;;
8435;SDS011;4255;48.730;9.156;2024-02-14T05:27:29;7.40;;;4.75;;
8435;SDS011;4255;48.730;9.156;2024-02-14T05:29:55;6.15;;;4.78;;
8435;SDS011;4255;48.730;9.156;2024-02-14T05:32:22;6.68;;;4.18;;
8435;SDS011;4255;48.730;9.156;2024-02-14T05:34:48;6.53;;;4.35;;
8435;SDS011;4255;48.730;9.156;2024-02-14T05:37:15;6.13;;;4.22;;
8435;SDS011;4255;48.730;9.156;2024-02-14T05:39:41;9.23;;;5.70;;
8435;SDS011;4255;48.730;9.156;2024-02-14T05:42:07;9.35;;;4.65;;
8435;SDS011;4255;48.730;9.156;2024-02-14T05:44:33;6.17;;;3.90;;
8435;SDS011;4255;48.730;9.156;2024-02-14T05:46:59;4.80;;;4.30;;
8435;SDS011;4255;48.730;9.156;2024-02-14T05:49:25;5.72;;;5.18;;
8435;SDS011;4255;48.730;9.156;2024-02-14T05:51:51;5.33;;;4.83;;
8435;SDS011;4255;48.730;9.156;2024-02-14T05:54:18;7.45;;;4.85;;
8435;SDS011;4255;48.730;9.156;2024-02-14T05:56:45;7.70;;;5.53;;
8435;SDS011;4255;48.730;9.156;2024-02-14T05:59:11;4.43;;;4.00;;
8435;SDS011;4255;48.730;9.156;2024-02-14T06:01:36;4.73;;;4.37;;
8435;SDS011;4255;48.730;9.156;2024-02-14T06:04:02;5.70;;;5.20;;
8435;SDS011;4255;48.730;9.156;2024-02-14T06:06:28;7.27;;;4.33;;
8435;SDS011;4255;48.730;9.156;2024-02-14T06:08:53;4.33;;;3.90;;
8435;SDS011;4255;48.730;9.156;2024-02-14T06:11:19;7.45;;;4.40;;
8435;SDS011;4255;48.730;9.156;2024-02-14T06:13:46;5.10;;;4.60;;
8435;SDS011;4255;48.730;9.156;2024-02-14T06:16:13;6.35;;;5.00;;
8435;SDS011;4255;48.730;9.156;2024-02-14T06:18:38;4.40;;;4.00;;
8435;SDS011;4255;48.730;9.156;2024-02-14T06:21:05;5.63;;;4.47;;
8435;SDS011;4255;48.730;9.156;2024-02-14T06:23:31;5.13;;;4.63;;
8435;SDS011;4255;48.730;9.156;2024-02-14T06:25:58;5.20;;;4.80;;
8435;SDS011;4255;48.730;9.156;2024-02-14T06:28:23;4.72;;;4.22;;
8435;SDS011;4255;48.730;9.156;2024-02-14T06:30:49;5.37;;;4.73;;
8435;SDS011;4255;48.730;9.156;2024-02-14T06:33:15;6.10;;;4.60;;
8435;SDS011;4255;48.730;9.156;2024-02-14T06:35:40;6.17;;;5.07;;
8435;SDS011;4255;48.730;9.156;2024-02-14T06:38:06;6.30;;;5.13;;
8435;SDS011;4255;48.730;9.156;2024-02-14T06:40:32;5.23;;;4.60;;
8435;SDS011;4255;48.730;9.156;2024-02-14T06:42:58;6.00;;;5.00;;
8435;SDS011;4255;48.730;9.156;2024-02-14T06:45:25;7.47;;;4.85;;
8435;SDS011;4255;48.730;9.156;2024-02-14T06:47:52;5.07;;;4.53;;
8435;SDS011;4255;48.730;9.156;2024-02-14T06:50:19;5.82;;;5.00;;
8435;SDS011;4255;48.730;9.156;2024-02-14T06:52:44;7.07;;;4.73;;
8435;SDS011;4255;48.730;9.156;2024-02-14T06:55:10;4.83;;;4.43;;
8435;SDS011;4255;48.730;9.156;2024-02-14T06:57:36;6.80;;;4.40;;
8435;SDS011;4255;48.730;9.156;2024-02-14T07:00:02;12.40;;;8.57;;
8435;SDS011;4255;48.730;9.156;2024-02-14T07:02:30;8.07;;;6.18;;
8435;SDS011;4255;48.730;9.156;2024-02-14T07:04:56;7.83;;;7.03;;
8435;SDS011;4255;48.730;9.156;2024-02-14T07:07:22;8.77;;;6.40;;
8435;SDS011;4255;48.730;9.156;2024-02-14T07:09:48;6.20;;;4.80;;
8435;SDS011;4255;48.730;9.156;2024-02-14T07:12:13;20.37;;;13.00;;
8435;SDS011;4255;48.730;9.156;2024-02-14T07:14:39;12.30;;;9.57;;
8435;SDS011;4255;48.730;9.156;2024-02-14T07:17:05;8.70;;;6.38;;
8435;SDS011;4255;48.730;9.156;2024-02-14T07:19:31;20.13;;;6.47;;
8435;SDS011;4255;48.730;9.156;2024-02-14T07:21:56;19.63;;;11.30;;
8435;SDS011;4255;48.730;9.156;2024-02-14T07:24:22;15.40;;;9.77;;
8435;SDS011;4255;48.730;9.156;2024-02-14T07:26:48;19.63;;;8.33;;
8435;SDS011;4255;48.730;9.156;2024-02-14T07:29:14;23.87;;;12.87;;
8435;SDS011;4255;48.730;9.156;2024-02-14T07:31:39;9.17;;;6.93;;
8435;SDS011;4255;48.730;9.156;2024-02-14T07:34:05;6.73;;;4.07;;
8435;SDS011;4255;48.730;9.156;2024-02-14T07:36:31;6.18;;;4.30;;
8435;SDS011;4255;48.730;9.156;2024-02-14T07:38:57;7.63;;;4.80;;
8435;SDS011;4255;48.730;9.156;2024-02-14T07:41:23;8.90;;;5.13;;
8435;SDS011;4255;48.730;9.156;2024-02-14T07:43:48;5.53;;;4.40;;
8435;SDS011;4255;48.730;9.156;2024-02-14T07:46:18;12.77;;;5.53;;
8435;SDS011;4255;48.730;9.156;2024-02-14T07:48:44;5.30;;;3.17;;
8435;SDS011;4255;48.730;9.156;2024-02-14T07:51:10;3.33;;;3.03;;
8435;SDS011;4255;48.730;9.156;2024-02-14T07:53:36;3.97;;;3.03;;
8435;SDS011;4255;48.730;9.156;2024-02-14T07:56:02;2.90;;;2.60;;
8435;SDS011;4255;48.730;9.156;2024-02-14T07:58:28;4.80;;;2.60;;
8435;SDS011;4255;48.730;9.156;2024-02-14T08:00:53;7.03;;;3.10;;
8435;SDS011;4255;48.730;9.156;2024-02-14T08:03:19;3.10;;;2.90;;
8435;SDS011;4255;48.730;9.156;2024-02-14T08:05:44;3.97;;;2.73;;
8435;SDS011;4255;48.730;9.156;2024-02-14T08:08:10;4.00;;;3.70;;
8435;SDS011;4255;48.730;9.156;2024-02-14T08:10:36;2.47;;;2.27;;
8435;SDS011;4255;48.730;9.156;2024-02-14T08:13:01;3.40;;;2.57;;
8435;SDS011;4255;48.730;9.156;2024-02-14T08:15:29;4.68;;;2.72;;
8435;SDS011;4255;48.730;9.156;2024-02-14T08:17:55;2.53;;;2.33;;
8435;SDS011;4255;48.730;9.156;2024-02-14T08:20:21;4.10;;;2.50;;
8435;SDS011;4255;48.730;9.156;2024-02-14T08:22:48;2.50;;;2.30;;
8435;SDS011;4255;48.730;9.156;2024-02-14T08:25:14;3.28;;;2.45;;
8435;SDS011;4255;48.730;9.156;2024-02-14T08:27:40;2.50;;;2.30;;
8435;SDS011;4255;48.730;9.156;2024-02-14T08:30:05;2.33;;;2.23;;
8435;SDS011;4255;48.730;9.156;2024-02-14T08:32:32;4.63;;;2.55;;
8435;SDS011;4255;48.730;9.156;2024-02-14T08:34:59;3.70;;;3.40;;
8435;SDS011;4255;48.730;9.156;2024-02-14T08:37:24;2.50;;;2.30;;
8435;SDS011;4255;48.730;9.156;2024-02-14T08:39:50;4.80;;;2.83;;
8435;SDS011;4255;48.730;9.156;2024-02-14T08:42:16;2.80;;;2.60;;
8435;SDS011;4255;48.730;9.156;2024-02-14T08:44:41;2.70;;;2.50;;
8435;SDS011;4255;48.730;9.156;2024-02-14T08:47:07;3.43;;;3.10;;
8435;SDS011;4255;48.730;9.156;2024-02-14T08:49:33;2.45;;;2.25;;
8435;SDS011;4255;48.730;9.156;2024-02-14T08:51:59;4.50;;;3.00;;
8435;SDS011;4255;48.730;9.156;2024-02-14T08:54:25;3.63;;;2.67;;
8435;SDS011;4255;48.730;9.156;2024-02-14T08:56:53;4.65;;;2.30;;
8435;SDS011;4255;48.730;9.156;2024-02-14T08:59:20;2.92;;;2.63;;
8435;SDS011;4255;48.730;9.156;2024-02-14T09:01:46;6.07;;;2.40;;
8435;SDS011;4255;48.730;9.156;2024-02-14T09:04:13;2.85;;;2.63;;
8435;SDS011;4255;48.730;9.156;2024-02-14T09:06:38;2.50;;;2.30;;
8435;SDS011;4255;48.730;9.156;2024-02-14T09:09:06;2.60;;;2.40;;
8435;SDS011;4255;48.730;9.156;2024-02-14T09:11:35;5.32;;;2.65;;
8435;SDS011;4255;48.730;9.156;2024-02-14T09:14:01;2.72;;;2.50;;
8435;SDS011;4255;48.730;9.156;2024-02-14T09:16:31;2.50;;;2.30;;
8435;SDS011;4255;48.730;9.156;2024-02-14T09:18:58;2.63;;;2.42;;
8435;SDS011;4255;48.730;9.156;2024-02-14T09:21:24;3.00;;;2.80;;
8435;SDS011;4255;48.730;9.156;2024-02-14T09:23:50;2.73;;;2.13;;
8435;SDS011;4255;48.730;9.156;2024-02-14T09:26:15;3.10;;;2.77;;
8435;SDS011;4255;48.730;9.156;2024-02-14T09:28:43;3.67;;;3.17;;
8435;SDS011;4255;48.730;9.156;2024-02-14T09:31:09;3.43;;;2.77;;
8435;SDS011;4255;48.730;9.156;2024-02-14T09:33:36;3.10;;;2.80;;
8435;SDS011;4255;48.730;9.156;2024-02-14T09:36:02;2.67;;;2.40;;
8435;SDS011;4255;48.730;9.156;2024-02-14T09:38:29;4.43;;;2.67;;
8435;SDS011;4255;48.730;9.156;2024-02-14T09:40:58;4.78;;;3.00;;
8435;SDS011;4255;48.730;9.156;2024-02-14T09:43:38;4.78;;;3.33;;
8435;SDS011;4255;48.730;9.156;2024-02-14T09:46:08;3.50;;;2.80;;
8435;SDS011;4255;48.730;9.156;2024-02-14T09:48:34;4.40;;;2.60;;
8435;SDS011;4255;48.730;9.156;2024-02-14T09:51:02;3.75;;;2.33;;
8435;SDS011;4255;48.730;9.156;2024-02-14T09:53:28;4.83;;;2.87;;
8435;SDS011;4255;48.730;9.156;2024-02-14T09:55:55;2.88;;;2.60;;
8435;SDS011;4255;48.730;9.156;2024-02-14T09:58:22;3.15;;;2.80;;
8435;SDS011;4255;48.730;9.156;2024-02-14T10:00:48;3.42;;;2.15;;
8435;SDS011;4255;48.730;9.156;2024-02-14T10:03:15;2.73;;;2.50;;
8435;SDS011;4255;48.730;9.156;2024-02-14T10:05:41;2.67;;;2.30;;
8435;SDS011;4255;48.730;9.156;2024-02-14T10:08:06;7.17;;;2.70;;
8435;SDS011;4255;48.730;9.156;2024-02-14T10:10:34;2.50;;;2.30;;
8435;SDS011;4255;48.730;9.156;2024-02-14T10:13:00;2.65;;;2.30;;
8435;SDS011;4255;48.730;9.156;2024-02-14T10:15:28;2.30;;;2.10;;
8435;SDS011;4255;48.730;9.156;2024-02-14T10:17:57;4.60;;;3.50;;
8435;SDS011;4255;48.730;9.156;2024-02-14T10:20:24;4.70;;;2.73;;
8435;SDS011;4255;48.730;9.156;2024-02-14T10:22:50;2.00;;;1.90;;
8435;SDS011;4255;48.730;9.156;2024-02-14T10:25:16;3.90;;;2.20;;
8435;SDS011;4255;48.730;9.156;2024-02-14T10:27:43;2.33;;;2.03;;
8435;SDS011;4255;48.730;9.156;2024-02-14T10:30:11;2.37;;;2.20;;
8435;SDS011;4255;48.730;9.156;2024-02-14T10:32:37;5.20;;;2.17;;
8435;SDS011;4255;48.730;9.156;2024-02-14T10:35:05;3.00;;;2.00;;
8435;SDS011;4255;48.730;9.156;2024-02-14T10:37:37;3.57;;;2.43;;
8435;SDS011;4255;48.730;9.156;2024-02-14T10:40:03;4.40;;;2.83;;
8435;SDS011;4255;48.730;9.156;2024-02-14T10:42:33;2.60;;;2.03;;
8435;SDS011;4255;48.730;9.156;2024-02-14T10:45:01;2.00;;;1.90;;
8435;SDS011;4255;48.730;9.156;2024-02-14T10:47:29;2.27;;;2.07;;
8435;SDS011;4255;48.730;9.156;2024-02-14T10:49:57;2.33;;;2.13;;
8435;SDS011;4255;48.730;9.156;2024-02-14T10:52:31;2.50;;;2.10;;
8435;SDS011;4255;48.730;9.156;2024-02-14T10:54:59;3.77;;;2.37;;
8435;SDS011;4255;48.730;9.156;2024-02-14T10:57:28;2.30;;;1.80;;
8435;SDS011;4255;48.730;9.156;2024-02-14T10:59:54;3.53;;;2.50;;
8435;SDS011;4255;48.730;9.156;2024-02-14T11:02:21;2.17;;;2.07;;
8435;SDS011;4255;48.730;9.156;2024-02-14T11:04:48;1.80;;;1.70;;
8435;SDS011;4255;48.730;9.156;2024-02-14T11:07:19;2.20;;;2.10;;
8435;SDS011;4255;48.730;9.156;2024-02-14T11:09:45;4.50;;;2.13;;
8435;SDS011;4255;48.730;9.156;2024-02-14T11:12:11;1.90;;;1.80;;
8435;SDS011;4255;48.730;9.156;2024-02-14T11:14:37;1.83;;;1.73;;
8435;SDS011;4255;48.730;9.156;2024-02-14T11:17:10;5.13;;;1.97;;
8435;SDS011;4255;48.730;9.156;2024-02-14T11:19:38;1.73;;;1.63;;
8435;SDS011;4255;48.730;9.156;2024-02-14T11:22:18;2.13;;;1.90;;
8435;SDS011;4255;48.730;9.156;2024-02-14T11:24:45;2.97;;;1.80;;
8435;SDS011;4255;48.730;9.156;2024-02-14T11:27:12;4.33;;;2.13;;
8435;SDS011;4255;48.730;9.156;2024-02-14T11:29:40;1.80;;;1.70;;
8435;SDS011;4255;48.730;9.156;2024-02-14T11:32:17;3.97;;;1.90;;
8435;SDS011;4255;48.730;9.156;2024-02-14T11:34:43;1.70;;;1.60;;
8435;SDS011;4255;48.730;9.156;2024-02-14T11:37:21;2.20;;;1.83;;
8435;SDS011;4255;48.730;9.156;2024-02-14T11:39:54;2.07;;;1.87;;
8435;SDS011;4255;48.730;9.156;2024-02-14T11:42:22;2.27;;;1.80;;
8435;SDS011;4255;48.730;9.156;2024-02-14T11:44:48;5.23;;;2.50;;
8435;SDS011;4255;48.730;9.156;2024-02-14T11:47:14;1.87;;;1.70;;
8435;SDS011;4255;48.730;9.156;2024-02-14T11:49:39;1.80;;;1.70;;
8435;SDS011;4255;48.730;9.156;2024-02-14T11:52:09;2.33;;;2.10;;
8435;SDS011;4255;48.730;9.156;2024-02-14T11:54:36;2.50;;;2.03;;
8435;SDS011;4255;48.730;9.156;2024-02-14T11:57:02;4.07;;;1.80;;
8435;SDS011;4255;48.730;9.156;2024-02-14T11:59:28;1.83;;;1.67;;
8435;SDS011;4255;48.730;9.156;2024-02-14T12:01:54;2.40;;;1.70;;
8435;SDS011;4255;48.730;9.156;2024-02-14T12:04:23;6.60;;;3.73;;
8435;SDS011;4255;48.730;9.156;2024-02-14T12:06:49;4.00;;;3.60;;
8435;SDS011;4255;48.730;9.156;2024-02-14T12:09:15;2.20;;;2.10;;
8435;SDS011;4255;48.730;9.156;2024-02-14T12:11:41;3.97;;;1.87;;
8435;SDS011;4255;48.730;9.156;2024-02-14T12:14:11;4.43;;;3.50;;
8435;SDS011;4255;48.730;9.156;2024-02-14T12:16:37;6.53;;;2.57;;
8435;SDS011;4255;48.730;9.156;2024-02-14T12:21:40;1.70;;;1.60;;
8435;SDS011;4255;48.730;9.156;2024-02-14T12:24:12;2.00;;;1.90;;
8435;SDS011;4255;48.730;9.156;2024-02-14T12:26:39;2.43;;;1.83;;
8435;SDS011;4255;48.730;9.156;2024-02-14T12:29:06;10.77;;;7.27;;
8435;SDS011;4255;48.730;9.156;2024-02-14T12:31:33;4.53;;;3.80;;
8435;SDS011;4255;48.730;9.156;2024-02-14T12:34:00;6.17;;;4.40;;
8435;SDS011;4255;48.730;9.156;2024-02-14T12:36:29;1.60;;;1.53;;
8435;SDS011;4255;48.730;9.156;2024-02-14T12:38:59;1.83;;;1.73;;
8435;SDS011;4255;48.730;9.156;2024-02-14T12:41:27;3.17;;;1.53;;
8435;SDS011;4255;48.730;9.156;2024-02-14T12:43:54;3.33;;;1.70;;
8435;SDS011;4255;48.730;9.156;2024-02-14T12:46:20;1.50;;;1.40;;
8435;SDS011;4255;48.730;9.156;2024-02-14T12:48:46;3.40;;;2.10;;
8435;SDS011;4255;48.730;9.156;2024-02-14T12:51:13;6.30;;;1.90;;
8435;SDS011;4255;48.730;9.156;2024-02-14T12:53:39;1.70;;;1.57;;
8435;SDS011;4255;48.730;9.156;2024-02-14T12:56:05;1.80;;;1.70;;
8435;SDS011;4255;48.730;9.156;2024-02-14T12:58:32;2.33;;;1.87;;
8435;SDS011;4255;48.730;9.156;2024-02-14T13:00:58;1.60;;;1.50;;
8435;SDS011;4255;48.730;9.156;2024-02-14T13:03:24;1.50;;;1.40;;
8435;SDS011;4255;48.730;9.156;2024-02-14T13:05:50;1.73;;;1.40;;
8435;SDS011;4255;48.730;9.156;2024-02-14T13:08:18;1.37;;;1.27;;
8435;SDS011;4255;48.730;9.156;2024-02-14T13:10:45;10.63;;;1.50;;
8435;SDS011;4255;48.730;9.156;2024-02-14T13:13:10;3.33;;;1.60;;
8435;SDS011;4255;48.730;9.156;2024-02-14T13:15:36;2.30;;;1.60;;
8435;SDS011;4255;48.730;9.156;2024-02-14T13:18:02;1.77;;;1.50;;
8435;SDS011;4255;48.730;9.156;2024-02-14T13:20:28;2.17;;;1.60;;
8435;SDS011;4255;48.730;9.156;2024-02-14T13:22:53;2.40;;;1.80;;
8435;SDS011;4255;48.730;9.156;2024-02-14T13:25:19;3.63;;;2.47;;
8435;SDS011;4255;48.730;9.156;2024-02-14T13:27:45;1.83;;;1.60;;
8435;SDS011;4255;48.730;9.156;2024-02-14T13:30:11;2.23;;;1.60;;
8435;SDS011;4255;48.730;9.156;2024-02-14T13:32:36;4.97;;;1.50;;
8435;SDS011;4255;48.730;9.156;2024-02-14T13:35:02;1.37;;;1.27;;
8435;SDS011;4255;48.730;9.156;2024-02-14T13:37:30;1.30;;;1.20;;
8435;SDS011;4255;48.730;9.156;2024-02-14T13:39:57;1.87;;;1.10;;
8435;SDS011;4255;48.730;9.156;2024-02-14T13:42:22;2.43;;;1.33;;
8435;SDS011;4255;48.730;9.156;2024-02-14T13:44:48;1.93;;;1.40;;
8435;SDS011;4255;48.730;9.156;2024-02-14T13:47:17;1.00;;;1.00;;
8435;SDS011;4255;48.730;9.156;2024-02-14T13:49:46;2.00;;;1.33;;
8435;SDS011;4255;48.730;9.156;2024-02-14T13:52:12;1.10;;;1.10;;
8435;SDS011;4255;48.730;9.156;2024-02-14T13:54:38;4.77;;;1.30;;
8435;SDS011;4255;48.730;9.156;2024-02-14T13:57:03;2.60;;;1.30;;
8435;SDS011;4255;48.730;9.156;2024-02-14T13:59:29;1.10;;;1.10;;
8435;SDS011;4255;48.730;9.156;2024-02-14T14:01:55;1.83;;;1.27;;
8435;SDS011;4255;48.730;9.156;2024-02-14T14:04:20;1.60;;;1.50;;
8435;SDS011;4255;48.730;9.156;2024-02-14T14:06:46;1.30;;;1.20;;
8435;SDS011;4255;48.730;9.156;2024-02-14T14:09:12;1.10;;;1.00;;
8435;SDS011;4255;48.730;9.156;2024-02-14T14:11:39;1.30;;;1.20;;
8435;SDS011;4255;48.730;9.156;2024-02-14T14:14:05;1.20;;;1.20;;
8435;SDS011;4255;48.730;9.156;2024-02-14T14:16:31;1.20;;;1.10;;
8435;SDS011;4255;48.730;9.156;2024-02-14T14:18:58;1.50;;;1.40;;
8435;SDS011;4255;48.730;9.156;2024-02-14T14:21:24;1.50;;;1.40;;
8435;SDS011;4255;48.730;9.156;2024-02-14T14:23:49;4.43;;;1.37;;
8435;SDS011;4255;48.730;9.156;2024-02-14T14:26:15;1.17;;;1.17;;
8435;SDS011;4255;48.730;9.156;2024-02-14T14:28:41;1.70;;;1.60;;
8435;SDS011;4255;48.730;9.156;2024-02-14T14:31:07;2.97;;;1.87;;
8435;SDS011;4255;48.730;9.156;2024-02-14T14:33:36;1.83;;;1.73;;
8435;SDS011;4255;48.730;9.156;2024-02-14T14:36:03;2.70;;;1.50;;
8435;SDS011;4255;48.730;9.156;2024-02-14T14:38:29;1.53;;;1.43;;
8435;SDS011;4255;48.730;9.156;2024-02-14T14:40:55;5.20;;;2.20;;
8435;SDS011;4255;48.730;9.156;2024-02-14T14:43:21;3.93;;;2.20;;
8435;SDS011;4255;48.730;9.156;2024-02-14T14:45:47;2.50;;;1.80;;
8435;SDS011;4255;48.730;9.156;2024-02-14T14:48:14;1.50;;;1.40;;
8435;SDS011;4255;48.730;9.156;2024-02-14T14:50:40;1.70;;;1.60;;
8435;SDS011;4255;48.730;9.156;2024-02-14T14:53:06;1.37;;;1.27;;
8435;SDS011;4255;48.730;9.156;2024-02-14T14:55:49;1.53;;;1.43;;
8435;SDS011;4255;48.730;9.156;2024-02-14T14:58:15;1.83;;;1.67;;
8435;SDS011;4255;48.730;9.156;2024-02-14T15:00:41;8.10;;;1.70;;
8435;SDS011;4255;48.730;9.156;2024-02-14T15:03:08;2.43;;;2.30;;
8435;SDS011;4255;48.730;9.156;2024-02-14T15:05:33;2.03;;;1.80;;
8435;SDS011;4255;48.730;9.156;2024-02-14T15:07:59;3.30;;;1.50;;
8435;SDS011;4255;48.730;9.156;2024-02-14T15:10:24;2.60;;;1.60;;
8435;SDS011;4255;48.730;9.156;2024-02-14T15:12:50;1.40;;;1.30;;